Flight Track Log - Related Links

Times and Time Zones

All times are in EDT time to prevent confusion due to time zone crossing. See the SWA3497 flight status page for this flight to view local times or setup timezone preferences in your user account.

Time Position Orientation Groundspeed Altitude Reporting Facility
EDT Latitude Longitude Course Direction KTS MPH feet Rate Location/Type
Mon 04:16:27 PM 39.1500 -76.6500 145° Southeast 159 183 1,700  Level Potomac TRACON
Mon 04:18:31 PM 39.0533 -76.5619 145° Southeast 217 250 7,900 3,065 Climbing Washington Center
Mon 04:19:31 PM 39.0769 -76.4633 73° East 206 237 11,100 2,850 Climbing Washington Center
Mon 04:20:31 PM 39.1006 -76.3458 75° East 265 305 13,600 1,450 Climbing Washington Center
Mon 04:21:31 PM 39.1244 -76.2203 76° East 319 367 14,000 300 Climbing Washington Center
Mon 04:22:31 PM 39.1542 -76.0922 73° East 347 399 14,200 1,650 Climbing Washington Center
Mon 04:23:31 PM 39.1775 -75.9639 77° East 359 413 17,300 2,250 Climbing Washington Center
Mon 04:24:31 PM 39.2217 -75.8408 65° Northeast 359 413 18,700 1,700 Climbing Washington Center
Mon 04:25:31 PM 39.3008 -75.7417 44° Northeast 369 425 20,700 2,150 Climbing Washington Center
Mon 04:26:31 PM 39.3822 -75.6372 45° Northeast 381 438 23,000 1,150 Climbing Washington Center
Mon 04:27:31 PM 39.4614 -75.5350 45° Northeast 395 455 23,000  Level Washington Center
Mon 04:28:31 PM 39.5383 -75.4300 46° Northeast 400 460 23,000  Level Washington Center
Mon 04:29:31 PM 39.6194 -75.3275 44° Northeast 400 460 23,000  Level Washington Center
Mon 04:30:31 PM 39.7025 -75.2328 41° Northeast 405 466 23,000  Level Washington Center
Mon 04:31:41 PM 39.8006 -75.0994 46° Northeast 419 482 23,000  Level New York Center
Mon 04:32:39 PM 39.8800 -74.9800 49° Northeast 426 490 23,000  Level New York Center
Mon 04:33:39 PM 39.9592 -74.8603 49° Northeast 436 502 23,000  Level New York Center
Mon 04:34:40 PM 40.0383 -74.7456 48° Northeast 435 501 23,000  Level New York Center
Mon 04:35:40 PM 40.1172 -74.6278 49° Northeast 440 506 23,000  Level New York Center
Mon 04:36:40 PM 40.1961 -74.5072 49° Northeast 440 506 23,000  Level New York Center
Mon 04:37:41 PM 40.2806 -74.4111 41° Northeast 440 506 23,000  Level New York Center
Mon 04:38:41 PM 40.3731 -74.3097 40° Northeast 434 499 23,000  Level New York Center
Mon 04:39:39 PM 40.4678 -74.2139 38° Northeast 429 494 23,000  Level New York Center
Mon 04:40:39 PM 40.5581 -74.1117 41° Northeast 429 494 23,000  Level New York Center
Mon 04:42:51 PM 40.7719 -73.8844 39° Northeast 368 423 23,000  Level Boston Center
Mon 04:43:51 PM 40.8606 -73.7819 41° Northeast 396 456 23,000  Level Boston Center
Mon 04:44:51 PM 40.9306 -73.6928 44° Northeast 408 470 23,000  Level Boston Center
Mon 04:45:51 PM 41.0358 -73.5683 42° Northeast 421 484 23,000  Level Boston Center
Mon 04:46:51 PM 41.1203 -73.4650 43° Northeast 421 484 23,000 -500 Level Boston Center
Mon 04:47:51 PM 41.2089 -73.3561 43° Northeast 421 484 22,000 -1,450 Descending Boston Center
Mon 04:48:51 PM 41.3011 -73.2883 29° Northeast 398 458 20,100 -1,850 Descending Boston Center
Mon 04:49:51 PM 41.4008 -73.3147 349° North 356 410 18,300 -1,050 Descending Boston Center
Mon 04:50:51 PM 41.4986 -73.3464 346° North 350 403 18,000 -200 Descending Boston Center
Mon 04:51:51 PM 41.5881 -73.3700 349° North 355 409 17,900 -150 Descending Boston Center
Mon 04:52:51 PM 41.6939 -73.4047 346° North 355 409 17,700 -1,150 Descending Boston Center
Mon 04:53:51 PM 41.7833 -73.4311 348° North 355 409 15,600 -2,050 Descending Boston Center
Mon 04:54:51 PM 41.8872 -73.4608 348° North 355 409 13,600 -1,952 Descending Boston Center
Mon 04:55:14 PM 41.9183 -73.4697 348° North 351 404 12,900 -1,800 Descending Boston Center
Mon 04:55:51 PM 41.9683 -73.4872 345° North 342 394 11,800 -1,237 Descending Boston Center
Mon 04:56:51 PM 42.0597 -73.5139 348° North 335 386 10,900 -400 Descending Boston Center
Mon 04:57:51 PM 42.1575 -73.5350 351° North 335 386 11,000  Climbing Boston Center
Mon 04:58:53 PM 42.2511 -73.5619 348° North 324 373 10,900 -585 Descending Boston Center
Mon 04:59:54 PM 42.3361 -73.5889 347° North 313 360 9,800 -1,119 Descending Boston Center
Mon 05:00:51 PM 42.4047 -73.6097 347° North 312 359 8,700 -1,388 Descending Boston Center
Mon 05:01:55 PM 42.4942 -73.6397 346° North 290 334 7,000 -900 Descending Boston Center
Mon 05:02:51 PM 42.5564 -73.6633 344° North 281 323 6,900 -517 Descending Boston Center
Mon 05:03:51 PM 42.6375 -73.6847 349° North 268 308 6,000 -500 Descending Boston Center
Mon 05:04:51 PM 42.7061 -73.6917 356° North 251 289 5,900 -100 Descending Boston Center
Mon 05:05:51 PM 42.7686 -73.7042 352° North 237 273 5,800 -595 Descending Boston Center
Mon 05:06:52 PM 42.8331 -73.7169 352° North 216 249 4,700 -1,100 Descending Boston Center
Mon 05:07:51 PM 42.8764 -73.7461 334° Northwest 204 235 3,600 -1,210 Descending Boston Center
Mon 05:08:51 PM 42.8383 -73.7964 224° Southwest 132 152 2,300 -1,231 Descending Boston Center
Mon 05:09:48 PM 42.8047 -73.8097 196° South 129 148 1,200 -966 Descending Boston Center
Mon 05:10:49 PM 42.7672 -73.8061 176° South 125 144 400 -787 Descending Boston Center

Login

Don't have an account? Register now (free) for customized features, flight alerts, and more!